CPA520 VHHH-RJAA
Flight info
| Callsign | CPA520 |
|---|---|
| Flight time | N/A |
| Altitude | 35000 |
| Route | DALOL V631 ENVAR M750 MUKEP Y891 AGIMO Y89 GUPER Y81 RUTAS |
| Aircraft | B77W/H-SDE1E2E3FGHIJ2J3J4J5M1RWXY/LB1D1 |
Departure
| Time | 2026-05-07 03:37 |
|---|---|
| Airport | Hong Kong International Airport (VHHH) |
Arrival
| Time | N/A |
|---|---|
| Airport | Narita International Airport (RJAA) |
| Time | Latitude | Longitude | Altitude | Speed | Heading |
|---|---|---|---|---|---|
| 2026-05-07 03:03 | 22.31430 | 113.92929 | 37 ft | 0 kts | 161° |
| 2026-05-07 03:19 | 22.31441 | 113.92925 | 37 ft | 4 kts | 161° |
| 2026-05-07 03:20 | 22.31466 | 113.92915 | 35 ft | 4 kts | 160° |
| 2026-05-07 03:20 | 22.31487 | 113.92907 | 34 ft | 4 kts | 163° |
| 2026-05-07 03:20 | 22.31512 | 113.92904 | 34 ft | 4 kts | 202° |
| 2026-05-07 03:20 | 22.31527 | 113.92920 | 34 ft | 3 kts | 251° |
| 2026-05-07 03:21 | 22.31536 | 113.92948 | 36 ft | 4 kts | 251° |
| 2026-05-07 03:21 | 22.31539 | 113.92957 | 34 ft | 0 kts | 251° |
| 2026-05-07 03:25 | 22.31539 | 113.92956 | 37 ft | 1 kts | 251° |
| 2026-05-07 03:25 | 22.31523 | 113.92906 | 37 ft | 9 kts | 251° |
| 2026-05-07 03:25 | 22.31502 | 113.92842 | 37 ft | 9 kts | 251° |
| 2026-05-07 03:25 | 22.31492 | 113.92777 | 37 ft | 9 kts | 277° |
| 2026-05-07 03:26 | 22.31530 | 113.92671 | 37 ft | 20 kts | 296° |
| 2026-05-07 03:26 | 22.31592 | 113.92535 | 37 ft | 20 kts | 296° |
| 2026-05-07 03:26 | 22.31646 | 113.92423 | 37 ft | 14 kts | 288° |
| 2026-05-07 03:26 | 22.31628 | 113.92319 | 37 ft | 15 kts | 250° |
| 2026-05-07 03:27 | 22.31594 | 113.92216 | 37 ft | 15 kts | 250° |
| 2026-05-07 03:27 | 22.31559 | 113.92113 | 37 ft | 15 kts | 250° |
| 2026-05-07 03:27 | 22.31528 | 113.92015 | 37 ft | 13 kts | 251° |
| 2026-05-07 03:27 | 22.31497 | 113.91919 | 37 ft | 13 kts | 245° |
| 2026-05-07 03:28 | 22.31414 | 113.91904 | 37 ft | 14 kts | 159° |
| 2026-05-07 03:28 | 22.31323 | 113.91935 | 37 ft | 14 kts | 162° |
| 2026-05-07 03:28 | 22.31233 | 113.91967 | 37 ft | 14 kts | 160° |
| 2026-05-07 03:28 | 22.31134 | 113.92004 | 37 ft | 15 kts | 161° |
| 2026-05-07 03:29 | 22.31033 | 113.92042 | 37 ft | 15 kts | 160° |
| 2026-05-07 03:29 | 22.30933 | 113.92080 | 37 ft | 15 kts | 161° |
| 2026-05-07 03:29 | 22.30833 | 113.92117 | 37 ft | 11 kts | 161° |
| 2026-05-07 03:29 | 22.30824 | 113.92120 | 37 ft | 5 kts | 161° |
| 2026-05-07 03:30 | 22.30734 | 113.92154 | 37 ft | 16 kts | 161° |
| 2026-05-07 03:30 | 22.30668 | 113.92154 | 37 ft | 10 kts | 212° |
| 2026-05-07 03:30 | 22.30636 | 113.92086 | 37 ft | 12 kts | 250° |
| 2026-05-07 03:30 | 22.30588 | 113.91937 | 37 ft | 24 kts | 251° |
| 2026-05-07 03:31 | 22.30533 | 113.91767 | 37 ft | 24 kts | 251° |
| 2026-05-07 03:31 | 22.30477 | 113.91597 | 37 ft | 24 kts | 250° |
| 2026-05-07 03:31 | 22.30423 | 113.91429 | 37 ft | 24 kts | 251° |
| 2026-05-07 03:31 | 22.30368 | 113.91259 | 37 ft | 24 kts | 251° |
| 2026-05-07 03:32 | 22.30313 | 113.91089 | 37 ft | 24 kts | 251° |
| 2026-05-07 03:32 | 22.30259 | 113.90918 | 37 ft | 24 kts | 251° |
| 2026-05-07 03:32 | 22.30204 | 113.90748 | 37 ft | 24 kts | 251° |
| 2026-05-07 03:32 | 22.30149 | 113.90578 | 37 ft | 24 kts | 250° |
| 2026-05-07 03:33 | 22.30094 | 113.90408 | 37 ft | 24 kts | 251° |
| 2026-05-07 03:33 | 22.30039 | 113.90238 | 37 ft | 24 kts | 251° |
| 2026-05-07 03:33 | 22.29984 | 113.90068 | 37 ft | 24 kts | 250° |
| 2026-05-07 03:33 | 22.29930 | 113.89898 | 37 ft | 24 kts | 251° |
| 2026-05-07 03:34 | 22.29874 | 113.89748 | 37 ft | 18 kts | 225° |
| 2026-05-07 03:34 | 22.29760 | 113.89758 | 37 ft | 6 kts | 160° |
| 2026-05-07 03:34 | 22.29757 | 113.89759 | 37 ft | 0 kts | 160° |
| 2026-05-07 03:35 | 22.29733 | 113.89768 | 37 ft | 10 kts | 160° |
| 2026-05-07 03:35 | 22.29660 | 113.89801 | 35 ft | 12 kts | 147° |
| 2026-05-07 03:36 | 22.29638 | 113.89854 | 35 ft | 12 kts | 88° |
| 2026-05-07 03:36 | 22.29670 | 113.89958 | 35 ft | 24 kts | 71° |
| 2026-05-07 03:36 | 22.29860 | 113.90554 | 36 ft | 108 kts | 71° |
| 2026-05-07 03:36 | 22.30175 | 113.91526 | 37 ft | 165 kts | 71° |
| 2026-05-07 03:37 | 22.30589 | 113.92797 | 333 ft | 183 kts | 72° |
| 2026-05-07 03:37 | 22.31019 | 113.94108 | 924 ft | 190 kts | 72° |
| 2026-05-07 03:37 | 22.31319 | 113.95033 | 1244 ft | 196 kts | 72° |
| 2026-05-07 03:37 | 22.31792 | 113.96486 | 1582 ft | 214 kts | 72° |
| 2026-05-07 03:38 | 22.32301 | 113.98060 | 1806 ft | 237 kts | 72° |
| 2026-05-07 03:38 | 22.32864 | 113.99821 | 2095 ft | 256 kts | 72° |
| 2026-05-07 03:38 | 22.33442 | 114.01663 | 2781 ft | 261 kts | 72° |
| 2026-05-07 03:38 | 22.33965 | 114.03548 | 3461 ft | 263 kts | 82° |
| 2026-05-07 03:39 | 22.33807 | 114.05518 | 3981 ft | 269 kts | 115° |
| 2026-05-07 03:39 | 22.32670 | 114.07112 | 4584 ft | 271 kts | 144° |
| 2026-05-07 03:39 | 22.31035 | 114.08131 | 5221 ft | 273 kts | 154° |
| 2026-05-07 03:39 | 22.29282 | 114.08923 | 5795 ft | 276 kts | 171° |
| 2026-05-07 03:40 | 22.27379 | 114.08943 | 6461 ft | 272 kts | 187° |
| 2026-05-07 03:40 | 22.25493 | 114.08744 | 7155 ft | 272 kts | 185° |
| 2026-05-07 03:40 | 22.23600 | 114.08637 | 7839 ft | 274 kts | 184° |
| 2026-05-07 03:40 | 22.21668 | 114.08585 | 8396 ft | 281 kts | 182° |
| 2026-05-07 03:41 | 22.19689 | 114.08593 | 8995 ft | 286 kts | 182° |
| 2026-05-07 03:41 | 22.17701 | 114.08697 | 9551 ft | 289 kts | 170° |
| 2026-05-07 03:41 | 22.15870 | 114.09663 | 9946 ft | 303 kts | 137° |
| 2026-05-07 03:41 | 22.14637 | 114.11538 | 10344 ft | 315 kts | 118° |
| 2026-05-07 03:42 | 22.13646 | 114.13719 | 10481 ft | 334 kts | 118° |
| 2026-05-07 03:42 | 22.12555 | 114.16025 | 10635 ft | 356 kts | 118° |
| 2026-05-07 03:42 | 22.11388 | 114.18477 | 10788 ft | 378 kts | 118° |
| 2026-05-07 03:42 | 22.10170 | 114.21045 | 11223 ft | 390 kts | 118° |
| 2026-05-07 03:43 | 22.08921 | 114.23675 | 11818 ft | 398 kts | 118° |
| 2026-05-07 03:43 | 22.07553 | 114.26251 | 12375 ft | 395 kts | 129° |
| 2026-05-07 03:43 | 22.05533 | 114.28261 | 12775 ft | 397 kts | 149° |
| 2026-05-07 03:43 | 22.03173 | 114.29817 | 13239 ft | 402 kts | 149° |
| 2026-05-07 03:44 | 22.00857 | 114.31544 | 13938 ft | 407 kts | 146° |
| 2026-05-07 03:44 | 21.98612 | 114.33343 | 14655 ft | 409 kts | 145° |
| 2026-05-07 03:44 | 21.96288 | 114.35205 | 15325 ft | 413 kts | 146° |
| 2026-05-07 03:44 | 21.93986 | 114.37032 | 15922 ft | 419 kts | 146° |
| 2026-05-07 03:45 | 21.91622 | 114.38893 | 16516 ft | 424 kts | 146° |
| 2026-05-07 03:45 | 21.89225 | 114.40778 | 17143 ft | 428 kts | 146° |
| 2026-05-07 03:45 | 21.86825 | 114.42684 | 17726 ft | 429 kts | 143° |
| 2026-05-07 03:45 | 21.84747 | 114.45016 | 17964 ft | 441 kts | 123° |
| 2026-05-07 03:46 | 21.83593 | 114.48098 | 18414 ft | 447 kts | 102° |
| 2026-05-07 03:46 | 21.83054 | 114.51383 | 18728 ft | 448 kts | 102° |
| 2026-05-07 03:46 | 21.82313 | 114.54677 | 19066 ft | 456 kts | 106° |
| 2026-05-07 03:46 | 21.81424 | 114.57956 | 19679 ft | 456 kts | 107° |
| 2026-05-07 03:47 | 21.80510 | 114.61227 | 20281 ft | 458 kts | 107° |
| 2026-05-07 03:47 | 21.79609 | 114.64526 | 20808 ft | 461 kts | 107° |
| 2026-05-07 03:47 | 21.78725 | 114.67858 | 21298 ft | 465 kts | 106° |
| 2026-05-07 03:47 | 21.77851 | 114.71225 | 21779 ft | 469 kts | 106° |
| 2026-05-07 03:48 | 21.76977 | 114.74622 | 22270 ft | 473 kts | 106° |
| 2026-05-07 03:48 | 21.76096 | 114.78045 | 22767 ft | 476 kts | 106° |
| 2026-05-07 03:48 | 21.75207 | 114.81485 | 23240 ft | 479 kts | 106° |
| 2026-05-07 03:48 | 21.74356 | 114.84951 | 23633 ft | 478 kts | 102° |
| 2026-05-07 03:49 | 21.74024 | 114.88526 | 23798 ft | 485 kts | 89° |
| 2026-05-07 03:49 | 21.74165 | 114.92166 | 24123 ft | 489 kts | 86° |
| 2026-05-07 03:49 | 21.74315 | 114.95829 | 24533 ft | 491 kts | 88° |
| 2026-05-07 03:49 | 21.74380 | 114.99502 | 24967 ft | 492 kts | 89° |
| 2026-05-07 03:50 | 21.74389 | 115.03197 | 25340 ft | 495 kts | 90° |
| 2026-05-07 03:50 | 21.74370 | 115.06915 | 25683 ft | 499 kts | 90° |
| 2026-05-07 03:50 | 21.74345 | 115.10658 | 26030 ft | 502 kts | 90° |
| 2026-05-07 03:50 | 21.74325 | 115.14428 | 26396 ft | 505 kts | 90° |
| 2026-05-07 03:51 | 21.74310 | 115.18212 | 26748 ft | 507 kts | 90° |
| 2026-05-07 03:51 | 21.74297 | 115.22012 | 27099 ft | 510 kts | 90° |
| 2026-05-07 03:51 | 21.74287 | 115.25841 | 27442 ft | 513 kts | 90° |
| 2026-05-07 03:51 | 21.74280 | 115.29683 | 27779 ft | 516 kts | 90° |
| 2026-05-07 03:52 | 21.74274 | 115.33553 | 28116 ft | 518 kts | 90° |
| 2026-05-07 03:52 | 21.74265 | 115.37437 | 28424 ft | 521 kts | 90° |
| 2026-05-07 03:52 | 21.74256 | 115.41349 | 28739 ft | 524 kts | 90° |
| 2026-05-07 03:52 | 21.74245 | 115.45220 | 29023 ft | 526 kts | 90° |
| 2026-05-07 03:53 | 21.74232 | 115.49162 | 29316 ft | 528 kts | 90° |
| 2026-05-07 03:53 | 21.74219 | 115.53172 | 29592 ft | 531 kts | 90° |
| 2026-05-07 03:53 | 21.74204 | 115.57150 | 29857 ft | 533 kts | 90° |
| 2026-05-07 03:53 | 21.74190 | 115.61084 | 30159 ft | 533 kts | 90° |
| 2026-05-07 03:54 | 21.74176 | 115.65060 | 30506 ft | 532 kts | 90° |
| 2026-05-07 03:54 | 21.74162 | 115.69027 | 30885 ft | 530 kts | 90° |
| 2026-05-07 03:54 | 21.74148 | 115.72992 | 31244 ft | 529 kts | 89° |
| 2026-05-07 03:54 | 21.74132 | 115.76942 | 31572 ft | 529 kts | 89° |
| 2026-05-07 03:55 | 21.74116 | 115.80898 | 31901 ft | 528 kts | 89° |
| 2026-05-07 03:55 | 21.74098 | 115.84842 | 32233 ft | 528 kts | 89° |
| 2026-05-07 03:55 | 21.74079 | 115.88788 | 32572 ft | 527 kts | 89° |
| 2026-05-07 03:55 | 21.74059 | 115.92723 | 32916 ft | 526 kts | 89° |
| 2026-05-07 03:56 | 21.74039 | 115.96655 | 33257 ft | 525 kts | 89° |
| 2026-05-07 03:56 | 21.74017 | 116.00579 | 33601 ft | 524 kts | 88° |
| 2026-05-07 03:56 | 21.73995 | 116.04496 | 33924 ft | 524 kts | 88° |
| 2026-05-07 03:56 | 21.73971 | 116.08410 | 34185 ft | 523 kts | 88° |
| 2026-05-07 03:57 | 21.73956 | 116.10999 | 34357 ft | 523 kts | 88° |